sensor_id;sensor_type;location;lat;lon;timestamp;pressure;altitude;pressure_sealevel;temperature;humidity
69245;BME280;56357;52.304;4.870;2023-04-27T00:01:47;102358.84;;;16.15;47.22
69245;BME280;56357;52.304;4.870;2023-04-27T00:04:14;102365.50;;;16.14;47.44
69245;BME280;56357;52.304;4.870;2023-04-27T00:06:41;102364.50;;;16.08;47.42
69245;BME280;56357;52.304;4.870;2023-04-27T00:09:07;102364.06;;;16.11;47.10
69245;BME280;56357;52.304;4.870;2023-04-27T00:11:34;102366.22;;;16.09;47.35
69245;BME280;56357;52.304;4.870;2023-04-27T00:14:00;102365.84;;;16.06;47.12
69245;BME280;56357;52.304;4.870;2023-04-27T00:16:27;102368.00;;;16.04;47.25
69245;BME280;56357;52.304;4.870;2023-04-27T00:18:53;102368.00;;;16.04;46.99
69245;BME280;56357;52.304;4.870;2023-04-27T00:21:20;102368.44;;;16.01;47.37
69245;BME280;56357;52.304;4.870;2023-04-27T00:23:46;102373.59;;;16.04;47.21
69245;BME280;56357;52.304;4.870;2023-04-27T00:26:13;102362.00;;;16.00;47.43
69245;BME280;56357;52.304;4.870;2023-04-27T00:28:39;102363.72;;;16.01;47.08
69245;BME280;56357;52.304;4.870;2023-04-27T00:31:05;102354.72;;;15.99;47.04
69245;BME280;56357;52.304;4.870;2023-04-27T00:33:32;102364.66;;;15.95;47.26
69245;BME280;56357;52.304;4.870;2023-04-27T00:35:59;102365.56;;;15.89;47.46
69245;BME280;56357;52.304;4.870;2023-04-27T00:38:27;102370.28;;;15.89;47.35
69245;BME280;56357;52.304;4.870;2023-04-27T00:41:03;102370.28;;;15.89;47.15
69245;BME280;56357;52.304;4.870;2023-04-27T00:43:30;102363.25;;;15.86;47.20
69245;BME280;56357;52.304;4.870;2023-04-27T00:46:00;102354.78;;;15.93;47.23
69245;BME280;56357;52.304;4.870;2023-04-27T00:48:29;102366.41;;;15.90;47.39
69245;BME280;56357;52.304;4.870;2023-04-27T00:50:56;102359.97;;;15.89;46.93
69245;BME280;56357;52.304;4.870;2023-04-27T00:53:22;102357.41;;;15.88;47.13
69245;BME280;56357;52.304;4.870;2023-04-27T00:55:49;102355.28;;;15.83;47.46
69245;BME280;56357;52.304;4.870;2023-04-27T00:58:15;102361.97;;;15.82;47.15
69245;BME280;56357;52.304;4.870;2023-04-27T01:00:42;102351.03;;;15.81;47.36
69245;BME280;56357;52.304;4.870;2023-04-27T01:03:08;102360.50;;;15.80;47.34
69245;BME280;56357;52.304;4.870;2023-04-27T01:05:36;102360.97;;;15.77;47.35
69245;BME280;56357;52.304;4.870;2023-04-27T01:08:03;102362.41;;;15.79;47.17
69245;BME280;56357;52.304;4.870;2023-04-27T01:10:29;102356.22;;;15.77;47.16
69245;BME280;56357;52.304;4.870;2023-04-27T01:12:56;102362.25;;;15.74;47.18
69245;BME280;56357;52.304;4.870;2023-04-27T01:15:22;102367.00;;;15.74;47.16
69245;BME280;56357;52.304;4.870;2023-04-27T01:17:56;102355.19;;;15.72;47.10
69245;BME280;56357;52.304;4.870;2023-04-27T01:20:23;102356.06;;;15.72;47.34
69245;BME280;56357;52.304;4.870;2023-04-27T01:22:49;102362.75;;;15.71;47.47
69245;BME280;56357;52.304;4.870;2023-04-27T01:25:15;102356.72;;;15.68;47.15
69245;BME280;56357;52.304;4.870;2023-04-27T01:27:42;102356.97;;;15.66;47.00
69245;BME280;56357;52.304;4.870;2023-04-27T01:30:09;102354.56;;;15.70;47.23
69245;BME280;56357;52.304;4.870;2023-04-27T01:32:36;102348.19;;;15.63;47.25
69245;BME280;56357;52.304;4.870;2023-04-27T01:35:04;102347.13;;;15.64;47.29
69245;BME280;56357;52.304;4.870;2023-04-27T01:37:31;102337.66;;;15.65;47.39
69245;BME280;56357;52.304;4.870;2023-04-27T01:39:57;102336.88;;;15.57;47.11
69245;BME280;56357;52.304;4.870;2023-04-27T01:42:23;102333.69;;;15.54;47.29
69245;BME280;56357;52.304;4.870;2023-04-27T01:44:50;102332.81;;;15.53;47.12
69245;BME280;56357;52.304;4.870;2023-04-27T01:47:17;102325.06;;;15.55;47.25
69245;BME280;56357;52.304;4.870;2023-04-27T01:49:43;102323.34;;;15.54;47.47
69245;BME280;56357;52.304;4.870;2023-04-27T01:52:10;102328.81;;;15.43;47.46
69245;BME280;56357;52.304;4.870;2023-04-27T01:54:36;102332.84;;;15.47;47.58
69245;BME280;56357;52.304;4.870;2023-04-27T01:57:02;102324.03;;;15.50;47.06
69245;BME280;56357;52.304;4.870;2023-04-27T01:59:29;102325.56;;;15.46;47.22
69245;BME280;56357;52.304;4.870;2023-04-27T02:01:55;102325.56;;;15.46;47.41
69245;BME280;56357;52.304;4.870;2023-04-27T02:04:22;102322.56;;;15.47;47.46
69245;BME280;56357;52.304;4.870;2023-04-27T02:06:48;102315.88;;;15.48;47.50
69245;BME280;56357;52.304;4.870;2023-04-27T02:09:15;102321.25;;;15.50;47.49
69245;BME280;56357;52.304;4.870;2023-04-27T02:11:41;102317.22;;;15.46;47.58
69245;BME280;56357;52.304;4.870;2023-04-27T02:14:08;102318.94;;;15.40;47.28
69245;BME280;56357;52.304;4.870;2023-04-27T02:16:35;102319.38;;;15.44;47.61
69245;BME280;56357;52.304;4.870;2023-04-27T02:19:01;102312.44;;;15.46;47.55
69245;BME280;56357;52.304;4.870;2023-04-27T02:21:28;102319.09;;;15.52;47.51
69245;BME280;56357;52.304;4.870;2023-04-27T02:23:54;102319.28;;;15.50;47.39
69245;BME280;56357;52.304;4.870;2023-04-27T02:26:21;102320.53;;;15.54;47.22
69245;BME280;56357;52.304;4.870;2023-04-27T02:28:53;102318.00;;;15.53;47.28
69245;BME280;56357;52.304;4.870;2023-04-27T02:31:19;102319.72;;;15.54;47.80
69245;BME280;56357;52.304;4.870;2023-04-27T02:33:46;102316.94;;;15.54;47.36
69245;BME280;56357;52.304;4.870;2023-04-27T02:36:12;102312.81;;;15.56;47.54
69245;BME280;56357;52.304;4.870;2023-04-27T02:38:39;102311.72;;;15.57;47.51
69245;BME280;56357;52.304;4.870;2023-04-27T02:41:05;102307.22;;;15.56;47.51
69245;BME280;56357;52.304;4.870;2023-04-27T02:43:32;102308.69;;;15.59;47.33
69245;BME280;56357;52.304;4.870;2023-04-27T02:46:04;102311.94;;;15.56;47.33
69245;BME280;56357;52.304;4.870;2023-04-27T02:48:32;102313.44;;;15.58;47.39
69245;BME280;56357;52.304;4.870;2023-04-27T02:51:02;102321.81;;;15.58;47.28
69245;BME280;56357;52.304;4.870;2023-04-27T02:53:29;102319.25;;;15.57;47.45
69245;BME280;56357;52.304;4.870;2023-04-27T02:55:55;102319.19;;;15.64;47.11
69245;BME280;56357;52.304;4.870;2023-04-27T02:58:22;102319.81;;;15.66;47.04
69245;BME280;56357;52.304;4.870;2023-04-27T03:00:58;102327.56;;;15.64;47.19
69245;BME280;56357;52.304;4.870;2023-04-27T03:03:26;102314.25;;;15.66;47.42
69245;BME280;56357;52.304;4.870;2023-04-27T03:05:53;102317.72;;;15.61;47.16
69245;BME280;56357;52.304;4.870;2023-04-27T03:08:19;102323.28;;;15.61;47.00
69245;BME280;56357;52.304;4.870;2023-04-27T03:10:45;102333.38;;;15.62;47.53
69245;BME280;56357;52.304;4.870;2023-04-27T03:13:13;102328.88;;;15.61;47.20
69245;BME280;56357;52.304;4.870;2023-04-27T03:15:39;102335.31;;;15.62;47.56
69245;BME280;56357;52.304;4.870;2023-04-27T03:18:06;102331.03;;;15.59;47.32
69245;BME280;56357;52.304;4.870;2023-04-27T03:20:32;102326.09;;;15.61;47.49
69245;BME280;56357;52.304;4.870;2023-04-27T03:22:59;102329.66;;;15.68;47.41
69245;BME280;56357;52.304;4.870;2023-04-27T03:25:25;102323.22;;;15.68;47.25
69245;BME280;56357;52.304;4.870;2023-04-27T03:27:51;102324.94;;;15.69;47.08
69245;BME280;56357;52.304;4.870;2023-04-27T03:30:18;102326.88;;;15.68;47.19
69245;BME280;56357;52.304;4.870;2023-04-27T03:32:44;102329.66;;;15.68;47.18
69245;BME280;56357;52.304;4.870;2023-04-27T03:35:11;102324.94;;;15.69;47.27
69245;BME280;56357;52.304;4.870;2023-04-27T03:37:38;102327.50;;;15.70;47.31
69245;BME280;56357;52.304;4.870;2023-04-27T03:40:05;102327.50;;;15.70;47.31
69245;BME280;56357;52.304;4.870;2023-04-27T03:42:32;102319.13;;;15.70;47.38
69245;BME280;56357;52.304;4.870;2023-04-27T03:44:58;102323.00;;;15.69;47.10
69245;BME280;56357;52.304;4.870;2023-04-27T03:47:25;102324.69;;;15.70;47.25
69245;BME280;56357;52.304;4.870;2023-04-27T03:49:51;102321.28;;;15.68;47.25
69245;BME280;56357;52.304;4.870;2023-04-27T03:52:17;102317.03;;;15.66;47.04
69245;BME280;56357;52.304;4.870;2023-04-27T03:54:44;102318.06;;;15.71;47.31
69245;BME280;56357;52.304;4.870;2023-04-27T03:57:10;102323.16;;;15.74;47.03
69245;BME280;56357;52.304;4.870;2023-04-27T03:59:37;102326.59;;;15.76;47.38
69245;BME280;56357;52.304;4.870;2023-04-27T04:02:03;102316.41;;;15.64;47.32
69245;BME280;56357;52.304;4.870;2023-04-27T04:04:30;102335.47;;;15.67;47.08
69245;BME280;56357;52.304;4.870;2023-04-27T04:06:57;102332.69;;;15.67;47.46
69245;BME280;56357;52.304;4.870;2023-04-27T04:09:23;102336.50;;;15.72;46.90
69245;BME280;56357;52.304;4.870;2023-04-27T04:11:51;102332.06;;;15.65;47.11
69245;BME280;56357;52.304;4.870;2023-04-27T04:14:17;102340.84;;;15.68;47.14
69245;BME280;56357;52.304;4.870;2023-04-27T04:16:43;102348.53;;;15.73;46.86
69245;BME280;56357;52.304;4.870;2023-04-27T04:19:10;102336.97;;;15.69;48.29
69245;BME280;56357;52.304;4.870;2023-04-27T04:21:37;102341.34;;;15.58;47.96
69245;BME280;56357;52.304;4.870;2023-04-27T04:24:03;102352.09;;;15.62;47.85
69245;BME280;56357;52.304;4.870;2023-04-27T04:26:30;102339.66;;;15.57;47.81
69245;BME280;56357;52.304;4.870;2023-04-27T04:28:57;102343.97;;;15.53;47.92
69245;BME280;56357;52.304;4.870;2023-04-27T04:31:24;102342.66;;;15.56;48.02
69245;BME280;56357;52.304;4.870;2023-04-27T04:33:50;102346.06;;;15.58;48.03
69245;BME280;56357;52.304;4.870;2023-04-27T04:36:17;102354.91;;;15.55;48.02
69245;BME280;56357;52.304;4.870;2023-04-27T04:38:43;102353.44;;;15.52;47.81
69245;BME280;56357;52.304;4.870;2023-04-27T04:41:10;102360.50;;;15.55;47.94
69245;BME280;56357;52.304;4.870;2023-04-27T04:43:36;102358.50;;;15.62;47.63
69245;BME280;56357;52.304;4.870;2023-04-27T04:46:03;102359.38;;;15.63;48.32
69245;BME280;56357;52.304;4.870;2023-04-27T04:48:30;102359.75;;;15.66;48.73
69245;BME280;56357;52.304;4.870;2023-04-27T04:50:56;102368.94;;;15.73;47.86
69245;BME280;56357;52.304;4.870;2023-04-27T04:53:23;102360.44;;;15.86;47.64
69245;BME280;56357;52.304;4.870;2023-04-27T04:55:50;102358.41;;;15.75;47.28
69245;BME280;56357;52.304;4.870;2023-04-27T04:58:16;102359.44;;;15.81;47.48
69245;BME280;56357;52.304;4.870;2023-04-27T05:00:43;102351.88;;;15.81;47.29
69245;BME280;56357;52.304;4.870;2023-04-27T05:03:09;102354.22;;;15.84;47.14
69245;BME280;56357;52.304;4.870;2023-04-27T05:05:36;102359.72;;;15.91;47.33
69245;BME280;56357;52.304;4.870;2023-04-27T05:08:02;102357.38;;;15.94;47.19
69245;BME280;56357;52.304;4.870;2023-04-27T05:10:29;102357.47;;;15.81;47.91
69245;BME280;56357;52.304;4.870;2023-04-27T05:12:56;102355.44;;;15.70;47.79
69245;BME280;56357;52.304;4.870;2023-04-27T05:15:22;102360.25;;;15.81;47.91
69245;BME280;56357;52.304;4.870;2023-04-27T05:17:49;102368.06;;;15.97;47.91
69245;BME280;56357;52.304;4.870;2023-04-27T05:20:15;102369.41;;;16.13;47.36
69245;BME280;56357;52.304;4.870;2023-04-27T05:22:41;102377.16;;;16.11;47.93
69245;BME280;56357;52.304;4.870;2023-04-27T05:25:08;102377.31;;;16.16;47.98
69245;BME280;56357;52.304;4.870;2023-04-27T05:27:35;102384.56;;;16.41;47.66
69245;BME280;56357;52.304;4.870;2023-04-27T05:30:01;102380.66;;;16.42;47.41
69245;BME280;56357;52.304;4.870;2023-04-27T05:32:28;102379.47;;;16.38;47.66
69245;BME280;56357;52.304;4.870;2023-04-27T05:34:54;102376.19;;;16.41;47.39
69245;BME280;56357;52.304;4.870;2023-04-27T05:37:21;102378.34;;;16.39;47.78
69245;BME280;56357;52.304;4.870;2023-04-27T05:39:47;102374.56;;;16.34;47.92
69245;BME280;56357;52.304;4.870;2023-04-27T05:42:14;102369.72;;;16.41;47.75
69245;BME280;56357;52.304;4.870;2023-04-27T05:44:40;102372.25;;;16.49;47.58
69245;BME280;56357;52.304;4.870;2023-04-27T05:47:07;102375.09;;;16.24;48.04
69245;BME280;56357;52.304;4.870;2023-04-27T05:49:33;102374.84;;;16.26;47.67
69245;BME280;56357;52.304;4.870;2023-04-27T05:52:00;102367.66;;;16.36;47.44
69245;BME280;56357;52.304;4.870;2023-04-27T05:54:27;102360.44;;;16.29;47.81
69245;BME280;56357;52.304;4.870;2023-04-27T05:56:53;102363.66;;;16.26;47.95
69245;BME280;56357;52.304;4.870;2023-04-27T05:59:19;102361.25;;;16.29;48.32
69245;BME280;56357;52.304;4.870;2023-04-27T06:01:46;102360.44;;;16.29;47.95
69245;BME280;56357;52.304;4.870;2023-04-27T06:04:13;102364.22;;;16.34;47.51
69245;BME280;56357;52.304;4.870;2023-04-27T06:06:39;102364.63;;;16.38;47.95
69245;BME280;56357;52.304;4.870;2023-04-27T06:09:06;102365.47;;;16.38;48.23
69245;BME280;56357;52.304;4.870;2023-04-27T06:11:32;102374.00;;;16.43;48.01
69245;BME280;56357;52.304;4.870;2023-04-27T06:13:59;102375.91;;;16.50;48.23
69245;BME280;56357;52.304;4.870;2023-04-27T06:16:25;102376.28;;;16.71;47.59
69245;BME280;56357;52.304;4.870;2023-04-27T06:18:52;102370.75;;;16.83;47.52
69245;BME280;56357;52.304;4.870;2023-04-27T06:21:18;102370.81;;;16.94;47.36
69245;BME280;56357;52.304;4.870;2023-04-27T06:23:45;102372.88;;;16.99;46.97
69245;BME280;56357;52.304;4.870;2023-04-27T06:26:11;102368.03;;;17.06;46.78
69245;BME280;56357;52.304;4.870;2023-04-27T06:28:38;102375.03;;;17.15;47.71
69245;BME280;56357;52.304;4.870;2023-04-27T06:31:04;102376.59;;;17.11;46.93
69245;BME280;56357;52.304;4.870;2023-04-27T06:33:31;102370.72;;;17.30;47.91
69245;BME280;56357;52.304;4.870;2023-04-27T06:35:59;102379.41;;;17.11;46.59
69245;BME280;56357;52.304;4.870;2023-04-27T06:38:26;102381.91;;;17.01;47.35
69245;BME280;56357;52.304;4.870;2023-04-27T06:40:52;102379.22;;;17.06;47.74
69245;BME280;56357;52.304;4.870;2023-04-27T06:43:18;102375.13;;;17.08;47.45
69245;BME280;56357;52.304;4.870;2023-04-27T06:45:45;102370.06;;;17.17;47.58
69245;BME280;56357;52.304;4.870;2023-04-27T06:48:11;102360.31;;;17.49;47.21
69245;BME280;56357;52.304;4.870;2023-04-27T06:50:38;102360.94;;;17.63;47.22
69245;BME280;56357;52.304;4.870;2023-04-27T06:53:05;102360.38;;;17.95;46.43
69245;BME280;56357;52.304;4.870;2023-04-27T06:55:31;102359.63;;;17.88;46.26
69245;BME280;56357;52.304;4.870;2023-04-27T06:57:58;102357.91;;;17.87;46.66
69245;BME280;56357;52.304;4.870;2023-04-27T07:00:25;102365.72;;;17.85;47.13
69245;BME280;56357;52.304;4.870;2023-04-27T07:02:52;102367.88;;;17.72;47.93
69245;BME280;56357;52.304;4.870;2023-04-27T07:05:18;102364.03;;;17.96;47.84
69245;BME280;56357;52.304;4.870;2023-04-27T07:07:45;102371.47;;;17.90;47.46
69245;BME280;56357;52.304;4.870;2023-04-27T07:10:11;102375.84;;;17.86;47.23
69245;BME280;56357;52.304;4.870;2023-04-27T07:12:38;102380.69;;;17.79;47.41
69245;BME280;56357;52.304;4.870;2023-04-27T07:15:05;102375.69;;;17.81;47.10
69245;BME280;56357;52.304;4.870;2023-04-27T07:17:32;102371.06;;;17.98;47.91
69245;BME280;56357;52.304;4.870;2023-04-27T07:20:00;102380.59;;;17.86;47.15
69245;BME280;56357;52.304;4.870;2023-04-27T07:22:27;102374.28;;;17.90;46.62
69245;BME280;56357;52.304;4.870;2023-04-27T07:24:54;102376.94;;;17.85;46.35
69245;BME280;56357;52.304;4.870;2023-04-27T07:27:20;102371.47;;;17.90;45.83
69245;BME280;56357;52.304;4.870;2023-04-27T07:29:47;102370.72;;;17.83;46.22
69245;BME280;56357;52.304;4.870;2023-04-27T07:32:13;102369.63;;;17.84;46.06
69245;BME280;56357;52.304;4.870;2023-04-27T07:34:40;102372.91;;;17.81;45.89
69245;BME280;56357;52.304;4.870;2023-04-27T07:37:06;102380.34;;;17.99;46.21
69245;BME280;56357;52.304;4.870;2023-04-27T07:39:33;102369.75;;;18.12;46.66
69245;BME280;56357;52.304;4.870;2023-04-27T07:41:59;102368.16;;;18.28;47.93
69245;BME280;56357;52.304;4.870;2023-04-27T07:44:26;102367.19;;;18.22;45.64
69245;BME280;56357;52.304;4.870;2023-04-27T07:46:53;102371.94;;;18.10;44.66
69245;BME280;56357;52.304;4.870;2023-04-27T07:49:23;102373.28;;;17.96;43.69
69245;BME280;56357;52.304;4.870;2023-04-27T07:51:50;102372.53;;;17.89;44.81
69245;BME280;56357;52.304;4.870;2023-04-27T07:54:16;102371.69;;;18.00;43.79
69245;BME280;56357;52.304;4.870;2023-04-27T07:56:43;102373.88;;;18.21;44.08
69245;BME280;56357;52.304;4.870;2023-04-27T07:59:09;102373.59;;;18.35;43.55
69245;BME280;56357;52.304;4.870;2023-04-27T08:01:36;102365.59;;;18.26;43.76
69245;BME280;56357;52.304;4.870;2023-04-27T08:04:02;102377.28;;;18.47;44.22
69245;BME280;56357;52.304;4.870;2023-04-27T08:06:29;102380.34;;;18.10;43.25
69245;BME280;56357;52.304;4.870;2023-04-27T08:08:55;102371.69;;;18.12;43.15
69245;BME280;56357;52.304;4.870;2023-04-27T08:11:25;102379.84;;;18.25;45.16
69245;BME280;56357;52.304;4.870;2023-04-27T08:13:51;102376.31;;;18.53;45.14
69245;BME280;56357;52.304;4.870;2023-04-27T08:16:18;102389.09;;;18.60;45.34
69245;BME280;56357;52.304;4.870;2023-04-27T08:18:44;102380.59;;;18.55;44.86
69245;BME280;56357;52.304;4.870;2023-04-27T08:21:11;102376.78;;;18.73;41.90
69245;BME280;56357;52.304;4.870;2023-04-27T08:23:37;102374.84;;;18.50;41.48
69245;BME280;56357;52.304;4.870;2023-04-27T08:26:04;102374.19;;;18.71;41.08
69245;BME280;56357;52.304;4.870;2023-04-27T08:28:30;102380.19;;;18.75;42.60
69245;BME280;56357;52.304;4.870;2023-04-27T08:30:57;102373.25;;;18.54;42.01
69245;BME280;56357;52.304;4.870;2023-04-27T08:33:24;102370.13;;;18.79;43.23
69245;BME280;56357;52.304;4.870;2023-04-27T08:35:52;102370.41;;;18.66;42.06
69245;BME280;56357;52.304;4.870;2023-04-27T08:38:19;102361.69;;;18.51;41.61
69245;BME280;56357;52.304;4.870;2023-04-27T08:40:46;102383.59;;;18.77;43.87
69245;BME280;56357;52.304;4.870;2023-04-27T08:43:12;102374.75;;;18.85;43.39
69245;BME280;56357;52.304;4.870;2023-04-27T08:45:47;102370.88;;;18.86;42.10
69245;BME280;56357;52.304;4.870;2023-04-27T08:48:14;102373.72;;;18.74;44.60
69245;BME280;56357;52.304;4.870;2023-04-27T08:50:43;102369.91;;;18.80;45.00
69245;BME280;56357;52.304;4.870;2023-04-27T08:53:19;102366.75;;;18.77;44.61
69245;BME280;56357;52.304;4.870;2023-04-27T08:55:46;102371.25;;;18.78;43.95
69245;BME280;56357;52.304;4.870;2023-04-27T08:58:13;102364.06;;;18.70;42.67
69245;BME280;56357;52.304;4.870;2023-04-27T09:00:41;102368.34;;;18.73;40.92
69245;BME280;56357;52.304;4.870;2023-04-27T09:03:18;102367.13;;;18.69;39.96
69245;BME280;56357;52.304;4.870;2023-04-27T09:05:47;102360.63;;;18.80;39.01
69245;BME280;56357;52.304;4.870;2023-04-27T09:08:13;102363.09;;;18.76;37.93
69245;BME280;56357;52.304;4.870;2023-04-27T09:10:47;102360.63;;;18.80;36.51
69245;BME280;56357;52.304;4.870;2023-04-27T09:13:14;102359.41;;;18.76;35.97
69245;BME280;56357;52.304;4.870;2023-04-27T09:15:42;102360.41;;;18.70;37.33
69245;BME280;56357;52.304;4.870;2023-04-27T09:18:20;102355.06;;;18.68;39.26
69245;BME280;56357;52.304;4.870;2023-04-27T09:20:49;102356.56;;;18.87;40.54
69245;BME280;56357;52.304;4.870;2023-04-27T09:23:29;102363.44;;;18.80;37.87
69245;BME280;56357;52.304;4.870;2023-04-27T09:26:01;102363.09;;;18.76;39.32
69245;BME280;56357;52.304;4.870;2023-04-27T09:28:30;102355.75;;;18.75;38.32
69245;BME280;56357;52.304;4.870;2023-04-27T09:31:01;102355.06;;;18.68;39.85
69245;BME280;56357;52.304;4.870;2023-04-27T09:33:30;102361.72;;;18.79;39.66
69245;BME280;56357;52.304;4.870;2023-04-27T09:35:58;102357.56;;;18.81;41.84
69245;BME280;56357;52.304;4.870;2023-04-27T09:38:26;102348.75;;;18.89;40.18
69245;BME280;56357;52.304;4.870;2023-04-27T09:40:53;102347.75;;;18.95;41.43
69245;BME280;56357;52.304;4.870;2023-04-27T09:43:21;102353.41;;;18.84;39.10
69245;BME280;56357;52.304;4.870;2023-04-27T09:45:48;102343.53;;;18.81;39.61
69245;BME280;56357;52.304;4.870;2023-04-27T09:48:16;102352.94;;;18.75;39.47
69245;BME280;56357;52.304;4.870;2023-04-27T09:50:43;102348.69;;;18.73;40.17
69245;BME280;56357;52.304;4.870;2023-04-27T09:53:12;102343.19;;;18.78;39.83
69245;BME280;56357;52.304;4.870;2023-04-27T09:55:43;102350.22;;;18.92;41.25
69245;BME280;56357;52.304;4.870;2023-04-27T09:58:49;102351.84;;;18.76;40.05
69245;BME280;56357;52.304;4.870;2023-04-27T10:07:06;102345.84;;;18.84;41.07
69245;BME280;56357;52.304;4.870;2023-04-27T10:12:25;102349.00;;;18.88;40.92
69245;BME280;56357;52.304;4.870;2023-04-27T10:14:59;102344.91;;;19.07;41.15
69245;BME280;56357;52.304;4.870;2023-04-27T10:17:33;102345.94;;;19.17;40.64
69245;BME280;56357;52.304;4.870;2023-04-27T10:20:05;102341.69;;;19.15;39.97
69245;BME280;56357;52.304;4.870;2023-04-27T10:22:51;102341.31;;;19.11;41.93
69245;BME280;56357;52.304;4.870;2023-04-27T10:25:18;102341.16;;;19.18;41.34
69245;BME280;56357;52.304;4.870;2023-04-27T10:27:51;102339.09;;;19.13;40.94
69245;BME280;56357;52.304;4.870;2023-04-27T10:30:21;102340.38;;;19.06;41.00
69245;BME280;56357;52.304;4.870;2023-04-27T10:32:57;102339.28;;;19.07;40.89
69245;BME280;56357;52.304;4.870;2023-04-27T10:35:32;102335.69;;;19.11;40.91
69245;BME280;56357;52.304;4.870;2023-04-27T10:38:08;102336.22;;;19.08;40.63
69245;BME280;56357;52.304;4.870;2023-04-27T10:40:36;102332.38;;;18.98;40.16
69245;BME280;56357;52.304;4.870;2023-04-27T10:43:16;102329.78;;;18.96;40.58
69245;BME280;56357;52.304;4.870;2023-04-27T10:45:43;102338.75;;;19.10;40.89
69245;BME280;56357;52.304;4.870;2023-04-27T10:48:13;102334.25;;;19.09;40.86
69245;BME280;56357;52.304;4.870;2023-04-27T10:50:40;102333.41;;;19.08;40.39
69245;BME280;56357;52.304;4.870;2023-04-27T10:53:08;102332.06;;;19.11;42.78
69245;BME280;56357;52.304;4.870;2023-04-27T10:55:35;102329.75;;;19.08;42.11
69245;BME280;56357;52.304;4.870;2023-04-27T10:58:02;102327.94;;;19.02;40.69
69245;BME280;56357;52.304;4.870;2023-04-27T11:03:08;102310.44;;;19.11;40.87
69245;BME280;56357;52.304;4.870;2023-04-27T11:05:36;102312.47;;;19.16;40.49
69245;BME280;56357;52.304;4.870;2023-04-27T11:08:09;102317.75;;;19.12;42.15
69245;BME280;56357;52.304;4.870;2023-04-27T11:10:42;102303.41;;;19.26;42.55
69245;BME280;56357;52.304;4.870;2023-04-27T11:13:14;102297.28;;;19.29;40.96
69245;BME280;56357;52.304;4.870;2023-04-27T11:15:50;102300.69;;;19.31;42.72
69245;BME280;56357;52.304;4.870;2023-04-27T11:18:20;102296.03;;;19.36;42.58
69245;BME280;56357;52.304;4.870;2023-04-27T11:20:48;102297.03;;;19.30;41.18
69245;BME280;56357;52.304;4.870;2023-04-27T11:23:27;102286.94;;;19.17;42.20
69245;BME280;56357;52.304;4.870;2023-04-27T11:25:54;102290.22;;;19.26;41.66
69245;BME280;56357;52.304;4.870;2023-04-27T11:28:22;102285.28;;;19.33;41.64
69245;BME280;56357;52.304;4.870;2023-04-27T11:30:58;102299.88;;;19.47;42.05
69245;BME280;56357;52.304;4.870;2023-04-27T11:33:26;102289.97;;;19.44;41.14
69245;BME280;56357;52.304;4.870;2023-04-27T11:35:53;102291.78;;;19.50;41.82
69245;BME280;56357;52.304;4.870;2023-04-27T11:38:20;102291.94;;;19.60;42.43
69245;BME280;56357;52.304;4.870;2023-04-27T11:41:06;102292.72;;;19.72;43.31
69245;BME280;56357;52.304;4.870;2023-04-27T11:43:33;102290.50;;;19.74;43.21
69245;BME280;56357;52.304;4.870;2023-04-27T11:46:03;102275.41;;;19.80;40.74
69245;BME280;56357;52.304;4.870;2023-04-27T11:48:31;102266.38;;;19.78;40.71
69245;BME280;56357;52.304;4.870;2023-04-27T11:50:57;102265.53;;;19.78;42.55
69245;BME280;56357;52.304;4.870;2023-04-27T11:53:29;102272.00;;;19.78;41.95
69245;BME280;56357;52.304;4.870;2023-04-27T11:56:01;102275.00;;;19.72;41.89
69245;BME280;56357;52.304;4.870;2023-04-27T11:58:31;102284.50;;;19.87;43.05
69245;BME280;56357;52.304;4.870;2023-04-27T12:00:58;102288.78;;;19.90;43.28
69245;BME280;56357;52.304;4.870;2023-04-27T12:03:24;102286.06;;;19.78;41.68
69245;BME280;56357;52.304;4.870;2023-04-27T12:05:51;102282.03;;;19.91;42.58
69245;BME280;56357;52.304;4.870;2023-04-27T12:08:18;102277.06;;;19.98;41.90
69245;BME280;56357;52.304;4.870;2023-04-27T12:10:46;102263.63;;;19.83;41.52
69245;BME280;56357;52.304;4.870;2023-04-27T12:13:12;102269.69;;;19.92;42.51
69245;BME280;56357;52.304;4.870;2023-04-27T12:15:39;102268.28;;;19.94;42.81
69245;BME280;56357;52.304;4.870;2023-04-27T12:18:06;102264.19;;;20.02;43.67
69245;BME280;56357;52.304;4.870;2023-04-27T12:20:34;102265.69;;;20.09;44.16
69245;BME280;56357;52.304;4.870;2023-04-27T12:23:00;102253.47;;;19.99;41.65
69245;BME280;56357;52.304;4.870;2023-04-27T12:25:27;102258.13;;;20.10;43.88
69245;BME280;56357;52.304;4.870;2023-04-27T12:27:54;102250.72;;;20.21;43.29
69245;BME280;56357;52.304;4.870;2023-04-27T12:30:22;102241.41;;;20.20;42.38
69245;BME280;56357;52.304;4.870;2023-04-27T12:32:48;102246.28;;;20.25;43.09
69245;BME280;56357;52.304;4.870;2023-04-27T12:35:15;102246.78;;;20.22;43.15
69245;BME280;56357;52.304;4.870;2023-04-27T12:37:41;102253.41;;;20.32;43.65
69245;BME280;56357;52.304;4.870;2023-04-27T12:40:08;102257.38;;;20.36;44.03
69245;BME280;56357;52.304;4.870;2023-04-27T12:42:35;102246.19;;;20.41;44.16
69245;BME280;56357;52.304;4.870;2023-04-27T12:45:01;102241.34;;;20.37;41.51
69245;BME280;56357;52.304;4.870;2023-04-27T12:47:28;102231.06;;;20.47;44.19
69245;BME280;56357;52.304;4.870;2023-04-27T12:49:56;102233.94;;;20.52;44.12
69245;BME280;56357;52.304;4.870;2023-04-27T12:52:22;102236.16;;;20.50;43.65
69245;BME280;56357;52.304;4.870;2023-04-27T12:54:49;102238.06;;;20.45;44.20
69245;BME280;56357;52.304;4.870;2023-04-27T12:57:21;102228.44;;;20.41;42.95
69245;BME280;56357;52.304;4.870;2023-04-27T12:59:48;102229.13;;;20.48;41.85
69245;BME280;56357;52.304;4.870;2023-04-27T13:02:15;102232.25;;;20.51;41.74
69245;BME280;56357;52.304;4.870;2023-04-27T13:04:41;102231.56;;;20.44;42.43